Time;durP1;ratioP1;P1;durP2;ratioP2;P2;SDS_P1;SDS_P2;PMS_P1;PMS_P2;Temp;Humidity;BMP_temperature;BMP_pressure;BME280_temperature;BME280_humidity;BME280_pressure;Samples;Min_cycle;Max_cycle;Signal;HPM_P1;HPM_P2
2020/12/30 00:00:13;;;;;;;7.57;4.30;;;4.80;93.90;;;;;;5074659;28;20074;-68
2020/12/30 00:02:39;;;;;;;6.97;4.45;;;4.80;93.90;;;;;;5072634;28;20387;-68
2020/12/30 00:05:07;;;;;;;6.85;4.40;;;4.80;93.90;;;;;;5072946;28;20024;-68
2020/12/30 00:07:33;;;;;;;7.85;4.43;;;4.80;93.90;;;;;;5073868;28;20027;-68
2020/12/30 00:09:59;;;;;;;5.20;3.97;;;4.70;94.10;;;;;;5082823;28;20138;-68
2020/12/30 00:12:28;;;;;;;7.57;4.22;;;4.70;93.90;;;;;;5087571;28;20052;-68
2020/12/30 00:14:57;;;;;;;7.28;4.00;;;4.80;93.90;;;;;;5073215;28;20032;-68
2020/12/30 00:17:23;;;;;;;6.07;4.43;;;4.70;93.90;;;;;;5076077;28;20032;-69
2020/12/30 00:19:48;;;;;;;6.32;3.75;;;4.70;93.90;;;;;;5092201;28;20034;-67
2020/12/30 00:22:14;;;;;;;6.80;4.72;;;4.70;94.00;;;;;;5092076;28;20020;-69
2020/12/30 00:24:39;;;;;;;7.93;4.43;;;4.70;94.00;;;;;;5074483;28;20021;-67
2020/12/30 00:27:05;;;;;;;5.63;4.10;;;4.70;94.00;;;;;;5074029;28;20032;-67
2020/12/30 00:29:31;;;;;;;6.15;4.20;;;4.70;94.00;;;;;;5072760;28;20028;-68
2020/12/30 00:31:57;;;;;;;8.52;4.20;;;4.60;94.00;;;;;;5090148;28;20028;-68
2020/12/30 00:34:23;;;;;;;6.35;4.28;;;4.60;94.00;;;;;;5083239;28;20031;-68
2020/12/30 00:36:49;;;;;;;6.47;4.22;;;4.60;94.00;;;;;;5073661;28;20040;-68
2020/12/30 00:39:14;;;;;;;6.57;4.43;;;4.60;94.00;;;;;;5074930;28;20019;-68
2020/12/30 00:41:40;;;;;;;8.10;5.03;;;4.60;94.00;;;;;;5072854;28;20119;-68
2020/12/30 00:44:07;;;;;;;5.93;4.07;;;4.60;94.00;;;;;;5087526;28;20021;-68
2020/12/30 00:46:32;;;;;;;6.60;4.55;;;4.60;94.00;;;;;;5072760;28;20469;-68
2020/12/30 00:48:58;;;;;;;6.85;4.50;;;4.60;94.10;;;;;;5084988;28;20036;-68
2020/12/30 00:51:23;;;;;;;6.45;4.20;;;4.60;94.10;;;;;;5091766;28;20182;-68
2020/12/30 00:53:49;;;;;;;7.43;3.90;;;4.50;94.10;;;;;;5075603;28;20071;-68
2020/12/30 00:56:14;;;;;;;6.20;3.97;;;4.60;94.10;;;;;;5072569;28;20128;-68
2020/12/30 00:58:40;;;;;;;7.15;4.47;;;4.60;94.10;;;;;;5073861;28;20024;-68
2020/12/30 01:01:07;;;;;;;6.47;4.20;;;4.50;94.10;;;;;;5070055;28;20040;-69
2020/12/30 01:03:34;;;;;;;8.43;4.32;;;4.50;94.10;;;;;;5071057;28;20047;-68
2020/12/30 01:06:01;;;;;;;6.90;4.55;;;4.50;94.10;;;;;;5072498;28;20028;-68
2020/12/30 01:08:27;;;;;;;5.63;3.83;;;4.50;94.10;;;;;;5071914;28;20546;-69
2020/12/30 01:10:52;;;;;;;5.78;4.13;;;4.50;94.10;;;;;;5071949;28;20056;-69
2020/12/30 01:13:18;;;;;;;5.65;3.53;;;4.50;94.10;;;;;;5076773;28;20467;-69
2020/12/30 01:15:43;;;;;;;6.32;4.05;;;4.40;94.10;;;;;;5074597;28;20032;-69
2020/12/30 01:18:09;;;;;;;6.88;3.95;;;4.40;94.20;;;;;;5075987;28;20448;-69
2020/12/30 01:20:35;;;;;;;6.50;3.97;;;4.40;94.20;;;;;;5075011;28;20033;-68
2020/12/30 01:23:00;;;;;;;7.07;4.13;;;4.40;94.20;;;;;;5073723;28;20054;-69
2020/12/30 01:25:27;;;;;;;6.82;4.18;;;4.40;94.20;;;;;;5080260;28;20073;-69
2020/12/30 01:27:52;;;;;;;6.38;4.22;;;4.40;94.20;;;;;;5088006;28;20024;-67
2020/12/30 01:30:18;;;;;;;6.30;3.92;;;4.40;94.20;;;;;;5090957;28;20089;-68
2020/12/30 01:32:44;;;;;;;5.97;3.90;;;4.40;94.20;;;;;;5084919;28;20103;-69
2020/12/30 01:35:10;;;;;;;5.47;4.18;;;4.40;94.20;;;;;;5077904;28;20127;-67
2020/12/30 01:37:35;;;;;;;7.07;4.22;;;4.40;94.20;;;;;;5102199;28;20394;-68
2020/12/30 01:40:01;;;;;;;5.60;4.10;;;4.40;94.20;;;;;;5090775;28;20034;-68
2020/12/30 01:42:26;;;;;;;7.50;4.60;;;4.40;94.20;;;;;;5087583;28;20054;-68
2020/12/30 01:44:51;;;;;;;6.50;4.35;;;4.40;94.20;;;;;;5085880;28;20036;-68
2020/12/30 01:47:18;;;;;;;7.13;4.40;;;4.40;94.20;;;;;;5088682;28;20663;-68
2020/12/30 01:49:44;;;;;;;6.53;4.10;;;4.40;94.20;;;;;;5072219;28;20029;-69
2020/12/30 01:52:10;;;;;;;8.40;4.32;;;4.40;94.20;;;;;;5085499;28;20030;-69
2020/12/30 01:54:35;;;;;;;5.68;4.32;;;4.40;94.20;;;;;;5082607;28;20078;-70
2020/12/30 01:57:03;;;;;;;7.15;4.10;;;4.40;94.20;;;;;;5090374;28;20415;-69
2020/12/30 01:59:29;;;;;;;5.85;4.18;;;4.40;94.20;;;;;;5080687;28;20518;-68
2020/12/30 02:02:03;;;;;;;5.57;4.18;;;4.40;94.20;;;;;;5090208;28;20028;-68
2020/12/30 02:04:47;;;;;;;8.23;4.63;;;4.40;94.20;;;;;;5079972;28;20377;-68
2020/12/30 02:07:13;;;;;;;5.47;3.92;;;4.40;94.30;;;;;;5090206;28;20043;-68
2020/12/30 02:09:40;;;;;;;8.43;4.43;;;4.40;94.20;;;;;;5073855;28;20040;-69
2020/12/30 02:12:06;;;;;;;6.35;4.00;;;4.40;94.20;;;;;;5074555;28;20031;-69
2020/12/30 02:14:32;;;;;;;6.20;4.55;;;4.40;94.20;;;;;;5071842;28;20040;-69
2020/12/30 02:16:57;;;;;;;8.15;4.13;;;4.40;94.30;;;;;;5070886;28;20040;-69
2020/12/30 02:19:23;;;;;;;7.35;4.07;;;4.40;94.30;;;;;;5071826;28;20484;-69
2020/12/30 02:21:52;;;;;;;7.75;4.15;;;4.40;94.30;;;;;;5078060;28;20505;-68
2020/12/30 02:24:28;;;;;;;5.65;3.58;;;4.40;94.30;;;;;;5072343;28;20033;-68
2020/12/30 02:26:54;;;;;;;5.97;4.40;;;4.40;94.30;;;;;;5085811;28;20035;-67
2020/12/30 02:29:20;;;;;;;6.00;3.70;;;4.50;94.30;;;;;;5071945;28;20028;-68
2020/12/30 02:31:45;;;;;;;7.07;4.28;;;4.50;94.30;;;;;;5071071;28;20393;-68
2020/12/30 02:34:11;;;;;;;7.53;4.20;;;4.50;94.30;;;;;;5071170;28;20029;-67
2020/12/30 02:36:36;;;;;;;6.75;4.38;;;4.50;94.30;;;;;;5083450;28;20488;-67
2020/12/30 02:39:02;;;;;;;7.40;3.78;;;4.50;94.30;;;;;;5072203;28;20465;-67
2020/12/30 02:41:28;;;;;;;7.30;4.03;;;4.60;94.40;;;;;;5070920;28;20110;-68
2020/12/30 02:43:54;;;;;;;7.30;3.88;;;4.50;94.30;;;;;;5071908;28;20465;-69
2020/12/30 02:46:19;;;;;;;6.78;3.80;;;4.60;94.40;;;;;;5087789;28;20086;-69
2020/12/30 02:48:45;;;;;;;5.93;3.75;;;4.60;94.40;;;;;;5076701;28;20033;-69
2020/12/30 02:51:10;;;;;;;9.93;4.20;;;4.60;94.30;;;;;;5074630;28;20418;-67
2020/12/30 02:53:36;;;;;;;6.68;3.30;;;4.60;94.30;;;;;;5087653;28;20043;-67
2020/12/30 02:56:02;;;;;;;6.03;3.63;;;4.60;94.20;;;;;;5096375;28;20040;-67
2020/12/30 02:58:27;;;;;;;6.72;3.80;;;4.70;94.20;;;;;;5078254;28;20024;-68
2020/12/30 03:00:53;;;;;;;5.13;3.60;;;4.70;94.20;;;;;;5074606;28;20024;-68
2020/12/30 03:03:18;;;;;;;7.65;4.22;;;4.70;94.10;;;;;;5084282;28;20479;-68
2020/12/30 03:05:44;;;;;;;5.82;3.83;;;4.70;94.10;;;;;;5094735;28;20034;-68
2020/12/30 03:08:09;;;;;;;6.00;3.30;;;4.70;94.00;;;;;;5078972;28;20020;-68
2020/12/30 03:10:35;;;;;;;6.82;3.60;;;4.60;94.00;;;;;;5074408;28;20025;-68
2020/12/30 03:13:00;;;;;;;6.60;3.70;;;4.70;94.00;;;;;;5074531;28;20027;-68
2020/12/30 03:15:26;;;;;;;5.63;4.05;;;4.60;94.00;;;;;;5074600;28;20024;-69
2020/12/30 03:17:51;;;;;;;5.50;3.55;;;4.60;93.90;;;;;;5074666;28;20032;-68
2020/12/30 03:20:17;;;;;;;7.97;3.58;;;4.60;94.00;;;;;;5073778;28;20036;-68
2020/12/30 03:22:43;;;;;;;6.40;3.85;;;4.60;94.00;;;;;;5076133;28;20024;-69
2020/12/30 03:25:08;;;;;;;5.00;3.55;;;4.60;94.00;;;;;;5093230;28;20060;-68
2020/12/30 03:27:34;;;;;;;5.18;3.30;;;4.60;94.00;;;;;;5100879;28;20009;-69
2020/12/30 03:29:59;;;;;;;5.65;3.35;;;4.60;94.00;;;;;;5094563;28;20047;-69
2020/12/30 03:32:26;;;;;;;5.85;3.60;;;4.60;94.00;;;;;;5085453;28;20052;-68
2020/12/30 03:34:52;;;;;;;6.03;3.78;;;4.60;94.00;;;;;;5074031;28;20029;-69
2020/12/30 03:37:18;;;;;;;4.95;3.28;;;4.60;94.00;;;;;;5086317;28;20063;-69
2020/12/30 03:39:43;;;;;;;6.35;3.30;;;4.60;94.00;;;;;;5074347;28;20017;-68
2020/12/30 03:42:09;;;;;;;6.05;3.50;;;4.60;94.00;;;;;;5086951;28;22567;-68
2020/12/30 03:44:34;;;;;;;6.32;3.40;;;4.60;94.00;;;;;;5094471;28;20016;-69
2020/12/30 03:47:00;;;;;;;7.95;3.45;;;4.60;94.00;;;;;;5087663;28;20221;-69
2020/12/30 03:49:26;;;;;;;5.10;3.20;;;4.60;94.00;;;;;;5094120;28;20020;-69
2020/12/30 03:51:52;;;;;;;5.25;3.35;;;4.60;94.00;;;;;;5090736;28;20028;-69
2020/12/30 03:54:17;;;;;;;5.57;3.35;;;4.50;94.00;;;;;;5073647;28;20072;-69
2020/12/30 03:56:43;;;;;;;7.70;3.38;;;4.50;94.00;;;;;;5076342;28;20043;-69
2020/12/30 03:59:08;;;;;;;7.63;3.72;;;4.50;94.00;;;;;;5073468;28;20032;-69
2020/12/30 04:01:33;;;;;;;7.82;3.47;;;4.50;94.00;;;;;;5090144;28;20124;-69
2020/12/30 04:03:59;;;;;;;4.93;3.30;;;4.50;94.00;;;;;;5075306;28;20552;-69
2020/12/30 04:06:24;;;;;;;5.70;2.78;;;4.60;94.00;;;;;;5086979;28;20036;-68
2020/12/30 04:08:50;;;;;;;4.70;3.40;;;4.60;94.00;;;;;;5076187;28;20029;-69
2020/12/30 04:11:15;;;;;;;5.10;3.47;;;4.60;94.00;;;;;;5086917;28;20036;-69
2020/12/30 04:13:41;;;;;;;4.45;2.78;;;4.60;94.00;;;;;;5078283;28;20461;-68
2020/12/30 04:16:06;;;;;;;6.38;2.97;;;4.60;94.00;;;;;;5073127;28;20037;-69
2020/12/30 04:18:32;;;;;;;4.88;2.88;;;4.60;94.00;;;;;;5073212;28;20020;-68
2020/12/30 04:20:57;;;;;;;4.93;2.83;;;4.60;94.00;;;;;;5072780;28;20036;-69
2020/12/30 04:23:23;;;;;;;4.97;3.13;;;4.60;94.00;;;;;;5079925;28;20120;-69
2020/12/30 04:25:48;;;;;;;5.60;3.13;;;4.50;94.00;;;;;;5074319;28;20030;-68
2020/12/30 04:28:17;;;;;;;5.72;4.65;;;4.50;94.10;;;;;;5081112;28;20436;-68
2020/12/30 04:30:42;;;;;;;4.70;3.47;;;4.50;94.00;;;;;;5072842;28;20021;-69
2020/12/30 04:33:09;;;;;;;6.70;3.20;;;4.50;94.10;;;;;;5072685;28;20081;-69
2020/12/30 04:35:35;;;;;;;5.60;3.30;;;4.50;94.10;;;;;;5078835;28;20024;-69
2020/12/30 04:38:00;;;;;;;4.70;3.00;;;4.60;94.10;;;;;;5072371;28;20093;-69
2020/12/30 04:40:27;;;;;;;4.30;2.88;;;4.60;94.20;;;;;;5074545;28;20035;-67
2020/12/30 04:42:55;;;;;;;5.30;3.00;;;4.60;94.10;;;;;;5073083;28;20032;-68
2020/12/30 04:45:21;;;;;;;6.40;4.28;;;4.60;94.10;;;;;;5075841;28;20028;-68
2020/12/30 04:47:48;;;;;;;5.05;3.10;;;4.60;94.10;;;;;;5083998;28;20031;-68
2020/12/30 04:50:13;;;;;;;5.78;3.38;;;4.60;94.10;;;;;;5072513;28;20040;-68
2020/12/30 04:52:41;;;;;;;5.82;3.42;;;4.50;94.10;;;;;;5077442;28;20027;-68
2020/12/30 04:55:07;;;;;;;4.45;3.15;;;4.60;94.10;;;;;;5085076;28;20056;-68
2020/12/30 04:58:04;;;;;;;6.25;3.45;;;4.60;94.10;;;;;;5081207;28;20546;-68
2020/12/30 05:00:31;;;;;;;4.40;3.25;;;4.50;94.10;;;;;;5082701;28;20039;-67
2020/12/30 05:02:59;;;;;;;5.18;3.03;;;4.50;94.10;;;;;;5082810;28;20429;-68
2020/12/30 05:05:25;;;;;;;4.35;2.88;;;4.50;94.10;;;;;;5072539;28;20025;-68
2020/12/30 05:07:52;;;;;;;5.10;2.92;;;4.50;94.10;;;;;;5076361;28;20024;-68
2020/12/30 05:10:18;;;;;;;6.07;2.97;;;4.50;94.10;;;;;;5083272;28;20053;-68
2020/12/30 05:12:43;;;;;;;5.55;2.95;;;4.50;94.10;;;;;;5076907;28;20028;-68
2020/12/30 05:15:09;;;;;;;5.20;3.00;;;4.50;94.10;;;;;;5072929;28;20043;-68
2020/12/30 05:17:35;;;;;;;6.57;3.47;;;4.50;94.10;;;;;;5096037;28;20472;-68
2020/12/30 05:20:00;;;;;;;6.97;3.35;;;4.50;94.10;;;;;;5071964;28;20029;-68
2020/12/30 05:22:26;;;;;;;6.55;3.45;;;4.50;94.10;;;;;;5071743;28;20162;-68
2020/12/30 05:24:52;;;;;;;6.68;3.00;;;4.50;94.10;;;;;;5071852;28;20103;-68
2020/12/30 05:27:19;;;;;;;6.50;3.72;;;4.50;94.10;;;;;;5087775;28;20370;-68
2020/12/30 05:29:51;;;;;;;7.30;3.53;;;4.50;94.30;;;;;;5080528;28;20028;-68
2020/12/30 05:32:20;;;;;;;7.90;3.38;;;4.40;94.30;;;;;;5072038;28;20024;-68
2020/12/30 05:34:46;;;;;;;6.55;3.83;;;4.50;94.10;;;;;;5074174;28;20102;-68
2020/12/30 05:37:14;;;;;;;6.22;3.13;;;4.40;94.10;;;;;;5072237;28;20042;-68
2020/12/30 05:39:39;;;;;;;6.68;4.28;;;4.40;94.10;;;;;;5071793;28;20060;-68
2020/12/30 05:42:13;;;;;;;6.93;3.60;;;4.40;94.10;;;;;;5078702;28;20518;-68
2020/12/30 05:44:40;;;;;;;5.72;3.55;;;4.30;94.10;;;;;;5071829;28;20028;-69
2020/12/30 05:47:18;;;;;;;5.95;3.67;;;4.40;94.20;;;;;;5071987;28;20032;-68
2020/12/30 05:49:45;;;;;;;7.50;3.63;;;4.40;94.20;;;;;;5071531;28;20024;-68
2020/12/30 05:52:19;;;;;;;5.38;3.05;;;4.30;94.20;;;;;;5071335;28;20036;-68
2020/12/30 05:54:49;;;;;;;5.53;3.33;;;4.30;94.20;;;;;;5071260;28;20474;-68
2020/12/30 05:57:19;;;;;;;6.13;3.42;;;4.30;94.20;;;;;;5071724;28;20047;-68
2020/12/30 05:59:45;;;;;;;7.03;3.80;;;4.30;94.30;;;;;;5071581;28;20025;-68
2020/12/30 06:02:11;;;;;;;7.15;4.07;;;4.30;94.30;;;;;;5087698;28;20119;-68
2020/12/30 06:04:37;;;;;;;5.82;3.60;;;4.30;94.30;;;;;;5094252;28;20048;-68
2020/12/30 06:07:03;;;;;;;6.15;3.42;;;4.30;94.30;;;;;;5074431;28;20060;-69
2020/12/30 06:09:37;;;;;;;6.88;3.38;;;4.30;94.30;;;;;;5071686;28;20043;-68
2020/12/30 06:12:04;;;;;;;;;;;4.30;94.30;;;;;;5072179;28;20033;-68
2020/12/30 06:14:31;;;;;;;5.70;3.38;;;4.20;94.20;;;;;;5083388;28;19912;-68
2020/12/30 06:17:00;;;;;;;6.40;3.58;;;4.20;94.20;;;;;;5074101;28;20036;-68
2020/12/30 06:19:27;;;;;;;5.78;3.35;;;4.20;94.30;;;;;;5086388;28;20024;-68
2020/12/30 06:21:53;;;;;;;6.22;3.42;;;4.20;94.40;;;;;;5080171;28;20036;-70
2020/12/30 06:24:18;;;;;;;5.70;3.30;;;4.20;94.40;;;;;;5074338;28;20071;-67
2020/12/30 06:26:44;;;;;;;6.15;3.95;;;4.20;94.30;;;;;;5078208;28;20539;-68
2020/12/30 06:29:15;;;;;;;5.45;3.17;;;4.20;94.40;;;;;;5075274;28;20020;-69
2020/12/30 06:31:42;;;;;;;5.53;3.40;;;4.20;94.40;;;;;;5083212;28;20055;-69
2020/12/30 06:34:08;;;;;;;7.93;3.70;;;4.10;94.30;;;;;;5074934;28;20017;-69
2020/12/30 06:36:34;;;;;;;5.13;3.17;;;4.10;94.40;;;;;;5074504;28;20614;-69
2020/12/30 06:38:59;;;;;;;7.10;3.58;;;4.10;94.40;;;;;;5074913;28;20021;-69
2020/12/30 06:41:54;;;;;;;7.47;3.20;;;4.10;94.40;;;;;;5090949;28;20512;-69
2020/12/30 06:44:38;;;;;;;7.05;3.33;;;4.10;94.40;;;;;;5092451;28;20028;-68
2020/12/30 06:47:06;;;;;;;6.80;3.95;;;4.10;94.40;;;;;;5075960;28;20118;-68
2020/12/30 06:49:31;;;;;;;7.28;4.20;;;4.00;94.40;;;;;;5077372;28;20036;-69
2020/12/30 06:51:57;;;;;;;6.50;3.58;;;4.10;94.40;;;;;;5074421;28;20025;-68
2020/12/30 06:54:46;;;;;;;6.25;3.78;;;4.10;94.40;;;;;;5074589;28;20078;-67
2020/12/30 06:57:35;;;;;;;5.40;3.65;;;4.00;94.40;;;;;;5075695;28;20081;-67
2020/12/30 07:00:20;;;;;;;8.75;3.72;;;4.00;94.50;;;;;;5086224;28;20020;-67
2020/12/30 07:03:06;;;;;;;;;;;4.00;94.50;;;;;;5079379;28;20020;-67
2020/12/30 07:05:31;;;;;;;5.95;3.80;;;4.00;94.40;;;;;;5075125;28;19964;-67
2020/12/30 07:07:57;;;;;;;8.80;3.92;;;4.00;94.40;;;;;;5074193;28;20040;-67
2020/12/30 07:10:23;;;;;;;5.68;3.47;;;3.90;94.50;;;;;;5074815;28;20029;-67
2020/12/30 07:12:49;;;;;;;6.32;3.53;;;3.90;94.50;;;;;;5074673;28;20051;-67
2020/12/30 07:15:14;;;;;;;8.52;4.55;;;4.00;94.60;;;;;;5083489;28;20024;-68
2020/12/30 07:17:40;;;;;;;6.75;3.97;;;4.00;94.50;;;;;;5091738;28;20372;-67
2020/12/30 07:20:20;;;;;;;6.90;4.57;;;4.00;94.50;;;;;;5085964;28;20385;-67
2020/12/30 07:22:47;;;;;;;6.30;4.20;;;3.90;94.60;;;;;;5079644;28;20036;-67
2020/12/30 07:25:15;;;;;;;6.15;3.95;;;4.00;94.60;;;;;;5079205;28;20589;-67
2020/12/30 07:27:40;;;;;;;7.40;4.13;;;4.00;94.60;;;;;;5074663;28;20025;-67
2020/12/30 07:30:05;;;;;;;7.65;4.30;;;4.00;94.60;;;;;;5080078;28;20042;-68
2020/12/30 07:32:32;;;;;;;8.18;4.28;;;4.00;94.60;;;;;;5088270;28;20029;-68
2020/12/30 07:34:59;;;;;;;7.15;4.22;;;4.00;94.60;;;;;;5091170;28;20024;-68
2020/12/30 07:37:24;;;;;;;6.35;4.20;;;4.00;94.60;;;;;;5091545;28;20051;-68
2020/12/30 07:39:50;;;;;;;11.35;4.70;;;3.90;94.60;;;;;;5093662;28;20361;-67
2020/12/30 07:42:19;;;;;;;8.45;4.50;;;3.90;94.60;;;;;;5089899;28;20021;-67
2020/12/30 07:44:49;;;;;;;8.35;4.10;;;4.00;94.70;;;;;;5080851;28;20099;-66
2020/12/30 07:47:16;;;;;;;7.10;4.22;;;4.00;94.70;;;;;;5090123;28;20040;-67
2020/12/30 07:49:41;;;;;;;7.55;4.85;;;4.00;94.70;;;;;;5073173;28;20123;-67
2020/12/30 07:52:08;;;;;;;7.38;4.68;;;3.90;94.70;;;;;;5073541;28;20052;-67
2020/12/30 07:54:33;;;;;;;7.13;4.57;;;3.90;94.70;;;;;;5089785;28;20048;-67
2020/12/30 07:57:10;;;;;;;10.80;5.10;;;3.90;94.70;;;;;;5073255;28;20110;-68
2020/12/30 07:59:37;;;;;;;7.13;4.70;;;3.90;94.80;;;;;;5079797;28;20028;-68
2020/12/30 08:02:14;;;;;;;7.22;4.70;;;3.90;94.80;;;;;;5075782;28;20119;-68
2020/12/30 08:04:42;;;;;;;8.88;5.10;;;3.90;94.80;;;;;;5081232;28;20051;-67
2020/12/30 08:07:13;;;;;;;7.35;4.97;;;3.90;94.80;;;;;;5073191;28;20047;-67
2020/12/30 08:09:40;;;;;;;7.53;4.95;;;3.90;94.90;;;;;;5069854;28;20028;-67
2020/12/30 08:12:07;;;;;;;12.65;4.93;;;3.90;94.90;;;;;;5071125;28;20032;-66
2020/12/30 08:14:37;;;;;;;7.60;5.07;;;3.90;94.90;;;;;;5071122;28;20111;-65
2020/12/30 08:17:07;;;;;;;9.27;5.15;;;3.90;94.90;;;;;;5074265;28;20040;-65
2020/12/30 08:19:33;;;;;;;9.75;4.65;;;3.90;94.90;;;;;;5092056;28;20105;-66
2020/12/30 08:22:02;;;;;;;7.70;5.00;;;3.90;94.90;;;;;;5076176;28;20500;-66
2020/12/30 08:24:29;;;;;;;8.38;5.05;;;3.90;94.90;;;;;;5087488;28;20028;-66
2020/12/30 08:26:55;;;;;;;7.93;4.78;;;4.00;95.00;;;;;;5079365;28;20032;-65
2020/12/30 08:29:20;;;;;;;9.30;4.93;;;4.00;94.90;;;;;;5070868;28;20063;-65
2020/12/30 08:31:52;;;;;;;8.98;4.40;;;4.00;94.90;;;;;;5072209;28;20387;-66
2020/12/30 08:34:23;;;;;;;10.25;4.68;;;4.10;94.90;;;;;;5075060;28;20036;-67
2020/12/30 08:36:59;;;;;;;9.05;4.82;;;4.10;94.90;;;;;;5081917;28;20083;-68
2020/12/30 08:39:25;;;;;;;9.88;4.43;;;4.10;94.90;;;;;;5083581;28;20115;-66
2020/12/30 08:41:53;;;;;;;8.35;4.60;;;4.10;94.90;;;;;;5090919;28;20119;-67
2020/12/30 08:44:21;;;;;;;6.63;4.22;;;4.10;94.90;;;;;;5084100;28;20032;-67
2020/12/30 08:46:51;;;;;;;7.88;4.60;;;4.10;94.80;;;;;;5077781;28;20037;-67
2020/12/30 08:49:21;;;;;;;8.55;4.97;;;4.20;94.80;;;;;;5079155;28;20032;-67
2020/12/30 08:51:46;;;;;;;7.30;4.88;;;4.20;94.80;;;;;;5092845;28;20346;-66
2020/12/30 08:54:16;;;;;;;12.98;5.40;;;4.20;94.80;;;;;;5078451;28;20047;-68
2020/12/30 08:56:43;;;;;;;8.38;5.15;;;4.30;94.90;;;;;;5077140;28;20044;-67
2020/12/30 08:59:08;;;;;;;12.40;5.47;;;4.30;94.90;;;;;;5080242;28;20032;-66
2020/12/30 09:01:34;;;;;;;6.50;4.60;;;4.40;94.80;;;;;;5072423;28;20036;-65
2020/12/30 09:04:10;;;;;;;10.13;4.45;;;4.40;94.80;;;;;;5084768;28;20028;-65
2020/12/30 09:06:36;;;;;;;10.65;4.97;;;4.50;94.80;;;;;;5091444;28;20024;-66
2020/12/30 09:09:10;;;;;;;8.60;4.72;;;4.50;94.70;;;;;;5084267;28;20055;-69
2020/12/30 09:11:37;;;;;;;6.45;4.50;;;4.50;94.70;;;;;;5080578;28;20523;-69
2020/12/30 09:14:16;;;;;;;6.43;4.25;;;4.60;94.70;;;;;;5082959;28;20036;-69
2020/12/30 09:16:56;;;;;;;12.38;4.88;;;4.60;94.60;;;;;;5076137;28;20036;-67
2020/12/30 09:19:22;;;;;;;7.60;4.60;;;4.70;94.50;;;;;;5073362;28;20024;-68
2020/12/30 09:21:47;;;;;;;8.27;4.63;;;4.80;94.50;;;;;;5085159;28;20047;-68
2020/12/30 09:24:14;;;;;;;7.25;4.60;;;4.80;94.40;;;;;;5085546;28;20415;-68
2020/12/30 09:26:40;;;;;;;8.38;4.55;;;4.80;94.40;;;;;;5082869;28;20038;-68
2020/12/30 09:29:16;;;;;;;8.95;4.82;;;4.80;94.40;;;;;;5072483;28;20213;-68
2020/12/30 09:31:55;;;;;;;9.23;4.93;;;4.90;94.40;;;;;;5074145;28;20028;-69
2020/12/30 09:34:21;;;;;;;9.93;4.82;;;4.90;94.30;;;;;;5072015;28;20039;-69
2020/12/30 09:36:57;;;;;;;8.60;5.03;;;5.00;94.30;;;;;;5071499;28;20047;-69
2020/12/30 09:39:24;;;;;;;8.63;5.00;;;5.10;94.30;;;;;;5074789;28;20034;-69
2020/12/30 09:41:59;;;;;;;7.80;4.88;;;5.10;94.20;;;;;;5073943;28;20036;-69
2020/12/30 09:44:25;;;;;;;10.23;5.28;;;5.10;94.20;;;;;;5070807;28;20025;-69
2020/12/30 09:46:51;;;;;;;10.88;5.28;;;5.20;94.20;;;;;;5074066;28;20047;-69
2020/12/30 09:49:18;;;;;;;8.20;5.55;;;5.20;94.20;;;;;;5071842;28;20093;-69
2020/12/30 09:51:44;;;;;;;8.45;5.88;;;5.30;94.20;;;;;;5068828;28;20029;-68
2020/12/30 09:54:09;;;;;;;7.20;4.88;;;5.20;94.10;;;;;;5070104;28;20056;-69
2020/12/30 09:56:35;;;;;;;10.57;5.45;;;5.30;94.10;;;;;;5073261;28;20161;-70
2020/12/30 09:59:02;;;;;;;9.20;5.03;;;5.30;94.10;;;;;;5068898;28;20475;-69
2020/12/30 10:01:29;;;;;;;8.93;5.15;;;5.30;94.10;;;;;;5067453;28;20032;-70
2020/12/30 10:03:54;;;;;;;9.48;4.95;;;5.30;94.00;;;;;;5070925;28;20032;-69
2020/12/30 10:06:20;;;;;;;8.85;5.28;;;5.30;94.00;;;;;;5080870;28;20043;-69
2020/12/30 10:08:45;;;;;;;7.57;4.15;;;5.30;94.00;;;;;;5080870;28;20599;-68
2020/12/30 10:11:11;;;;;;;11.52;5.40;;;5.40;94.00;;;;;;5091274;28;20020;-69
2020/12/30 10:13:36;;;;;;;7.10;4.60;;;5.40;93.90;;;;;;5074064;28;20063;-69
2020/12/30 10:16:02;;;;;;;8.45;4.60;;;5.40;93.90;;;;;;5072531;28;20044;-69
2020/12/30 10:18:27;;;;;;;6.32;4.55;;;5.50;93.90;;;;;;5082846;28;20028;-70
2020/12/30 10:20:53;;;;;;;7.43;4.32;;;5.50;93.80;;;;;;5078983;28;20029;-69
2020/12/30 10:23:18;;;;;;;7.35;4.47;;;5.50;93.80;;;;;;5070072;28;20035;-70
2020/12/30 10:25:44;;;;;;;7.72;4.97;;;5.60;93.70;;;;;;5083422;28;20400;-69
2020/12/30 10:28:09;;;;;;;6.38;4.70;;;5.60;93.60;;;;;;5071138;28;20115;-69
2020/12/30 10:30:35;;;;;;;9.52;4.75;;;5.60;93.60;;;;;;5073683;28;20029;-68
2020/12/30 10:33:01;;;;;;;8.98;5.10;;;5.60;93.60;;;;;;5071755;28;20032;-69
2020/12/30 10:35:26;;;;;;;7.75;4.82;;;5.70;93.50;;;;;;5085534;28;20024;-68
2020/12/30 10:37:54;;;;;;;9.98;5.05;;;5.70;93.50;;;;;;5080947;28;20034;-68
2020/12/30 10:40:20;;;;;;;10.20;4.82;;;5.70;93.50;;;;;;5073208;28;20036;-69
2020/12/30 10:42:45;;;;;;;7.53;4.57;;;5.80;93.50;;;;;;5073076;28;20042;-69
2020/12/30 10:45:11;;;;;;;7.38;4.80;;;5.80;93.40;;;;;;5072847;28;20021;-70
2020/12/30 10:47:36;;;;;;;8.75;5.03;;;5.80;93.30;;;;;;5070378;28;20036;-68
2020/12/30 10:50:02;;;;;;;7.05;4.70;;;5.80;93.30;;;;;;5075104;28;20043;-69
2020/12/30 10:52:28;;;;;;;8.15;4.25;;;5.80;93.30;;;;;;5074074;28;20027;-69
2020/12/30 10:54:53;;;;;;;7.60;4.50;;;5.90;93.30;;;;;;5079189;28;20511;-69
2020/12/30 10:57:19;;;;;;;8.82;5.03;;;5.90;93.30;;;;;;5078333;28;20036;-69
2020/12/30 10:59:44;;;;;;;9.73;4.65;;;5.90;93.20;;;;;;5079222;28;20111;-69
2020/12/30 11:02:10;;;;;;;9.85;4.80;;;5.90;93.20;;;;;;5076786;28;20036;-69
2020/12/30 11:04:35;;;;;;;9.10;5.38;;;5.90;93.20;;;;;;5085267;28;20032;-69
2020/12/30 11:07:03;;;;;;;9.95;5.03;;;6.00;93.20;;;;;;5085960;28;20124;-69
2020/12/30 11:09:29;;;;;;;7.45;4.65;;;6.00;93.10;;;;;;5078693;28;20028;-69
2020/12/30 11:11:55;;;;;;;7.70;4.93;;;6.10;93.30;;;;;;5088456;28;20035;-70
2020/12/30 11:14:20;;;;;;;7.07;4.70;;;6.10;93.10;;;;;;5078602;28;20024;-70
2020/12/30 11:16:49;;;;;;;10.15;5.10;;;6.10;93.10;;;;;;5073002;28;20041;-70
2020/12/30 11:19:15;;;;;;;9.77;4.63;;;6.10;93.10;;;;;;5075195;28;20021;-70
2020/12/30 11:21:41;;;;;;;7.45;4.43;;;6.10;93.00;;;;;;5075689;28;20044;-70
2020/12/30 11:24:06;;;;;;;9.32;4.93;;;6.20;93.00;;;;;;5074065;28;20605;-70
2020/12/30 11:26:31;;;;;;;10.15;5.15;;;6.20;93.00;;;;;;5074783;28;20033;-69
2020/12/30 11:28:57;;;;;;;7.50;4.10;;;6.30;92.90;;;;;;5077091;28;20044;-69
2020/12/30 11:31:23;;;;;;;8.80;4.70;;;6.30;92.90;;;;;;5085248;28;20074;-69
2020/12/30 11:33:48;;;;;;;8.40;4.40;;;6.40;92.80;;;;;;5091479;28;20028;-70
2020/12/30 11:36:14;;;;;;;7.68;4.90;;;6.40;92.70;;;;;;5087107;28;20040;-69
2020/12/30 11:38:39;;;;;;;7.68;4.40;;;6.50;92.70;;;;;;5081579;28;20028;-69
2020/12/30 11:41:06;;;;;;;10.25;4.70;;;6.50;92.70;;;;;;5087499;28;20743;-70
2020/12/30 11:43:32;;;;;;;8.50;4.97;;;6.50;92.70;;;;;;5081436;28;20020;-69
2020/12/30 11:45:58;;;;;;;7.05;4.53;;;6.50;92.60;;;;;;5092921;28;20031;-70
2020/12/30 11:48:24;;;;;;;7.72;4.50;;;6.50;92.60;;;;;;5088182;28;20099;-69
2020/12/30 11:50:49;;;;;;;7.32;4.50;;;6.60;92.60;;;;;;5073497;28;20154;-69
2020/12/30 11:53:15;;;;;;;7.80;4.72;;;6.70;92.60;;;;;;5072971;28;20052;-69
2020/12/30 11:55:40;;;;;;;7.47;4.80;;;6.70;92.50;;;;;;5073725;28;20507;-69
2020/12/30 11:58:06;;;;;;;6.50;4.35;;;6.70;92.50;;;;;;5080842;28;20115;-69
2020/12/30 12:00:32;;;;;;;9.57;4.47;;;6.70;92.50;;;;;;5080477;28;20480;-69
2020/12/30 12:02:58;;;;;;;8.15;5.20;;;6.70;92.50;;;;;;5079411;28;20029;-69
2020/12/30 12:05:23;;;;;;;7.53;4.50;;;6.80;92.50;;;;;;5073222;28;20047;-69
2020/12/30 12:07:49;;;;;;;8.80;5.07;;;6.80;92.40;;;;;;5082542;28;20345;-69
2020/12/30 12:10:14;;;;;;;9.27;4.78;;;6.80;92.40;;;;;;5074678;28;20028;-69
2020/12/30 12:12:40;;;;;;;7.63;4.30;;;6.90;92.40;;;;;;5081438;28;20020;-69
2020/12/30 12:15:06;;;;;;;7.75;4.50;;;6.90;92.40;;;;;;5093545;28;20028;-69
2020/12/30 12:17:32;;;;;;;11.15;4.18;;;6.90;92.30;;;;;;5092322;28;20032;-69
2020/12/30 12:19:58;;;;;;;6.10;4.25;;;7.00;92.30;;;;;;5093578;28;20024;-69
2020/12/30 12:22:23;;;;;;;6.40;4.45;;;7.00;92.20;;;;;;5080651;28;20081;-69
2020/12/30 12:24:49;;;;;;;8.13;4.20;;;7.00;92.20;;;;;;5080210;28;20388;-69
2020/12/30 12:27:14;;;;;;;7.68;4.63;;;7.10;92.10;;;;;;5079139;28;20567;-69
2020/12/30 12:29:47;;;;;;;7.15;4.38;;;7.10;92.10;;;;;;5085909;28;20112;-69
2020/12/30 12:32:19;;;;;;;6.97;4.45;;;7.20;92.10;;;;;;5073903;28;20028;-69
2020/12/30 12:34:47;;;;;;;6.78;4.82;;;7.20;92.00;;;;;;5073165;28;20044;-70
2020/12/30 12:37:14;;;;;;;10.65;5.45;;;7.20;92.00;;;;;;5072780;28;20032;-68
2020/12/30 12:39:41;;;;;;;7.60;5.05;;;7.20;92.00;;;;;;5087357;28;20073;-69
2020/12/30 12:42:07;;;;;;;7.18;4.63;;;7.30;91.90;;;;;;5083420;28;20434;-70
2020/12/30 12:44:32;;;;;;;7.75;4.40;;;7.30;91.80;;;;;;5073441;28;20025;-70
2020/12/30 12:46:59;;;;;;;7.15;4.30;;;7.30;91.70;;;;;;5072783;28;20077;-69
2020/12/30 12:49:24;;;;;;;10.40;4.82;;;7.40;91.70;;;;;;5072624;28;20028;-69
2020/12/30 12:51:52;;;;;;;9.48;4.78;;;7.40;91.60;;;;;;5091466;28;20032;-70
2020/12/30 12:54:18;;;;;;;7.55;4.40;;;7.40;91.60;;;;;;5092838;28;20044;-69
2020/12/30 12:56:44;;;;;;;8.57;5.05;;;7.40;91.60;;;;;;5093119;28;20387;-69